createdAt,value
2023-08-29T00:01:35.153Z,33
2023-08-29T00:06:51.140Z,33
2023-08-29T00:12:06.808Z,33
2023-08-29T00:17:21.573Z,33
2023-08-29T00:22:37.587Z,33
2023-08-29T00:27:53.743Z,33
2023-08-29T00:33:10.626Z,33
2023-08-29T00:38:26.749Z,33
2023-08-29T00:43:40.968Z,33
2023-08-29T00:48:55.853Z,33
2023-08-29T00:54:11.392Z,33
2023-08-29T00:59:27.505Z,33
2023-08-29T01:04:43.742Z,33
2023-08-29T01:09:59.857Z,33
2023-08-29T01:15:15.350Z,33
2023-08-29T01:20:30.230Z,33
2023-08-29T01:31:02.005Z,34
2023-08-29T01:36:18.742Z,34
2023-08-29T01:41:34.220Z,34
2023-08-29T01:46:49.118Z,34
2023-08-29T01:52:04.640Z,34
2023-08-29T01:57:20.161Z,34
2023-08-29T02:02:36.416Z,34
2023-08-29T02:07:51.838Z,34
2023-08-29T02:13:07.359Z,34
2023-08-29T02:18:23.573Z,34
2023-08-29T02:23:38.399Z,34
2023-08-29T02:28:53.904Z,34
2023-08-29T02:34:10.136Z,34
2023-08-29T02:39:26.224Z,34
2023-08-29T02:44:42.381Z,35
2023-08-29T02:49:58.570Z,35
2023-08-29T02:55:14.745Z,35
2023-08-29T03:00:29.685Z,35
2023-08-29T03:05:45.106Z,34
2023-08-29T03:11:01.306Z,35
2023-08-29T03:16:20.908Z,34
2023-08-29T03:26:49.156Z,34
2023-08-29T03:32:05.508Z,35
2023-08-29T03:37:21.433Z,35
2023-08-29T03:42:36.358Z,35
2023-08-29T03:47:52.681Z,35
2023-08-29T03:53:07.987Z,35
2023-08-29T03:58:22.895Z,35
2023-08-29T04:03:39.728Z,35
2023-08-29T04:08:53.898Z,35
2023-08-29T04:14:08.789Z,34
2023-08-29T04:19:23.669Z,35
2023-08-29T04:24:40.515Z,35
2023-08-29T04:29:56.633Z,35
2023-08-29T04:35:12.797Z,35
2023-08-29T04:40:27.715Z,35
2023-08-29T04:45:42.054Z,35
2023-08-29T04:50:56.832Z,35
2023-08-29T04:56:11.671Z,35
2023-08-29T05:01:27.269Z,35
2023-08-29T05:06:42.151Z,35
2023-08-29T05:11:56.977Z,35
2023-08-29T05:17:11.834Z,35
2023-08-29T05:22:27.035Z,35
2023-08-29T05:27:43.565Z,35
2023-08-29T05:32:58.510Z,35
2023-08-29T05:38:13.950Z,35
2023-08-29T05:43:28.790Z,35
2023-08-29T05:48:44.305Z,36
2023-08-29T05:53:59.193Z,36
2023-08-29T05:59:14.107Z,36
2023-08-29T06:04:29.603Z,36
2023-08-29T06:09:44.484Z,36
2023-08-29T06:15:00.024Z,36
2023-08-29T06:20:14.901Z,36
2023-08-29T06:25:30.010Z,36
2023-08-29T06:30:45.355Z,36
2023-08-29T06:36:01.424Z,36
2023-08-29T06:41:16.986Z,36
2023-08-29T06:46:32.667Z,36
2023-08-29T06:51:47.386Z,36
2023-08-29T06:57:03.503Z,36
2023-08-29T07:02:19.694Z,36
2023-08-29T07:07:34.581Z,36
2023-08-29T07:12:50.083Z,36
2023-08-29T07:18:06.041Z,36
2023-08-29T07:18:12.133Z,36
2023-08-29T07:23:21.146Z,36
2023-08-29T07:23:27.786Z,36
2023-08-29T07:28:35.994Z,36
2023-08-29T07:33:52.797Z,36
2023-08-29T07:39:08.338Z,36
2023-08-29T07:44:23.213Z,36
2023-08-29T07:49:44.824Z,36
2023-08-29T08:31:45.471Z,35
2023-08-29T08:37:00.956Z,34
2023-08-29T08:42:17.179Z,34
2023-08-29T08:47:32.709Z,34
2023-08-29T08:52:48.811Z,34
2023-08-29T08:58:05.727Z,34
2023-08-29T09:03:20.649Z,34
2023-08-29T09:08:35.432Z,34
2023-08-29T09:13:50.243Z,34
2023-08-29T09:19:06.390Z,34
2023-08-29T09:24:21.304Z,34
2023-08-29T09:29:36.135Z,33
2023-08-29T09:34:51.744Z,33
2023-08-29T09:40:39.841Z,32
2023-08-29T09:45:22.846Z,32
2023-08-29T09:50:38.948Z,31
2023-08-29T09:55:53.121Z,31
2023-08-29T10:01:08.134Z,30
2023-08-29T10:06:26.713Z,30
2023-08-29T10:11:55.612Z,29
2023-08-29T10:17:00.434Z,29
2023-08-29T10:22:15.846Z,29
2023-08-29T10:27:30.751Z,29
2023-08-29T10:32:47.727Z,29
2023-08-29T10:38:02.399Z,29
2023-08-29T10:43:18.560Z,29
2023-08-29T10:48:33.451Z,28
2023-08-29T10:53:49.013Z,28
2023-08-29T10:59:05.167Z,28
2023-08-29T11:04:21.408Z,27
2023-08-29T11:09:37.443Z,27
2023-08-29T11:12:10.409Z,27
2023-08-29T11:17:26.663Z,27
2023-08-29T11:22:42.090Z,27
2023-08-29T11:27:58.229Z,26
2023-08-29T11:33:14.381Z,26
2023-08-29T11:38:30.593Z,26
2023-08-29T11:49:00.960Z,25
2023-08-29T11:54:15.190Z,25
2023-08-29T11:59:30.101Z,25
2023-08-29T12:04:45.594Z,25
2023-08-29T12:10:01.761Z,25
2023-08-29T12:15:44.211Z,25
2023-08-29T12:20:31.626Z,25
2023-08-29T12:25:47.669Z,25
2023-08-29T12:31:03.325Z,25
2023-08-29T12:36:18.722Z,24
2023-08-29T12:41:33.664Z,24
2023-08-29T12:46:48.541Z,23
2023-08-29T12:52:04.018Z,23
2023-08-29T12:57:18.897Z,23
2023-08-29T13:02:35.352Z,23
2023-08-29T13:07:49.915Z,23
2023-08-29T13:13:05.439Z,23
2023-08-29T13:18:20.990Z,23
2023-08-29T13:23:35.842Z,23
2023-08-29T13:28:51.360Z,23
2023-08-29T13:34:06.318Z,24
2023-08-29T13:39:21.764Z,24
2023-08-29T13:44:36.636Z,24
2023-08-29T13:49:51.525Z,23
2023-08-29T13:55:40.964Z,23
2023-08-29T14:00:57.268Z,23
2023-08-29T14:06:12.668Z,23
2023-08-29T14:11:27.521Z,22
2023-08-29T14:16:43.919Z,22
2023-08-29T14:21:59.215Z,21
2023-08-29T14:27:15.360Z,21
2023-08-29T14:32:31.612Z,21
2023-08-29T14:37:46.501Z,21
2023-08-29T14:43:02.168Z,21
2023-08-29T14:48:17.498Z,21
2023-08-29T14:53:33.597Z,21
2023-08-29T14:58:50.392Z,22
2023-08-29T15:04:05.289Z,22
2023-08-29T15:09:21.459Z,22
2023-08-29T15:14:36.943Z,22
2023-08-29T15:19:52.485Z,22
2023-08-29T15:25:07.359Z,22
2023-08-29T15:30:23.521Z,22
2023-08-29T15:35:38.429Z,22
2023-08-29T15:40:53.914Z,22
2023-08-29T15:46:08.353Z,22
2023-08-29T15:51:23.679Z,22
2023-08-29T15:56:40.481Z,22
2023-08-29T16:01:56.183Z,22
2023-08-29T16:07:11.504Z,22
2023-08-29T16:12:26.415Z,22
2023-08-29T16:17:42.666Z,22
2023-08-29T16:22:56.828Z,22
2023-08-29T16:28:11.684Z,22
2023-08-29T16:33:29.122Z,22
2023-08-29T16:38:45.270Z,22
2023-08-29T16:44:00.203Z,21
2023-08-29T16:49:16.319Z,22
2023-08-29T16:54:31.206Z,22
2023-08-29T16:59:46.781Z,22
2023-08-29T17:05:02.241Z,22
2023-08-29T17:10:17.180Z,22
2023-08-29T17:15:33.296Z,22
2023-08-29T17:20:48.805Z,22
2023-08-29T17:26:04.954Z,22
2023-08-29T17:31:21.310Z,23
2023-08-29T17:36:36.630Z,23
2023-08-29T17:41:52.155Z,23
2023-08-29T17:47:39.155Z,24
2023-08-29T17:52:55.197Z,24
2023-08-29T17:58:11.364Z,24
2023-08-29T18:03:27.174Z,24
2023-08-29T18:08:41.768Z,24
2023-08-29T18:13:57.912Z,24
2023-08-29T18:19:14.172Z,24
2023-08-29T18:24:30.903Z,25
2023-08-29T18:29:47.057Z,25
2023-08-29T18:35:01.930Z,25
2023-08-29T18:40:18.105Z,25
2023-08-29T18:45:34.378Z,26
2023-08-29T18:50:51.030Z,26
2023-08-29T18:56:07.198Z,26
2023-08-29T19:01:22.080Z,26
2023-08-29T19:06:38.260Z,26
2023-08-29T19:11:53.146Z,27
2023-08-29T19:17:09.402Z,27
2023-08-29T19:22:24.152Z,27
2023-08-29T19:27:40.346Z,27
2023-08-29T19:32:59.762Z,27
2023-08-29T19:38:11.526Z,27
2023-08-29T19:43:26.239Z,27
2023-08-29T19:48:42.407Z,28
2023-08-29T19:53:57.908Z,28
2023-08-29T19:59:38.386Z,28
2023-08-29T20:04:53.268Z,28
2023-08-29T20:10:08.153Z,28
2023-08-29T20:15:24.390Z,29
2023-08-29T20:20:39.234Z,29
2023-08-29T20:25:55.326Z,29
2023-08-29T20:31:10.360Z,29
2023-08-29T20:36:26.453Z,29
2023-08-29T20:41:40.646Z,29
2023-08-29T20:46:56.192Z,29
2023-08-29T20:52:12.315Z,29
2023-08-29T20:57:28.481Z,30
2023-08-29T21:02:44.282Z,30
2023-08-29T21:07:58.247Z,30
2023-08-29T21:13:13.139Z,30
2023-08-29T21:18:28.038Z,30
2023-08-29T21:23:43.539Z,30
2023-08-29T21:28:58.395Z,30
2023-08-29T21:34:13.934Z,30
2023-08-29T21:39:30.097Z,30
2023-08-29T21:44:46.878Z,30
2023-08-29T21:50:01.743Z,30
2023-08-29T21:55:16.637Z,30
2023-08-29T22:00:32.163Z,30
2023-08-29T22:05:48.310Z,31
2023-08-29T22:11:03.900Z,31
2023-08-29T22:16:20.069Z,31
2023-08-29T22:21:36.176Z,31
2023-08-29T22:26:52.360Z,31
2023-08-29T22:32:08.476Z,31
2023-08-29T22:37:24.002Z,31
2023-08-29T22:42:40.805Z,31
2023-08-29T22:47:56.452Z,31
2023-08-29T22:53:11.199Z,31
2023-08-29T22:58:26.101Z,31
2023-08-29T23:03:41.049Z,32
2023-08-29T23:08:55.887Z,32
2023-08-29T23:14:10.067Z,32
2023-08-29T23:19:25.650Z,32
2023-08-29T23:24:40.480Z,32
2023-08-29T23:30:21.002Z,32
2023-08-29T23:35:37.127Z,32
2023-08-29T23:40:52.640Z,32
2023-08-29T23:46:07.531Z,32
2023-08-29T23:51:23.699Z,32
2023-08-29T23:56:39.194Z,32
